createdAt,value
2023-02-11T00:03:42.337Z,30.80
2023-02-11T00:08:44.168Z,30.45
2023-02-11T00:13:46.289Z,26.55
2023-02-11T00:18:48.771Z,29.05
2023-02-11T00:23:50.452Z,25.42
2023-02-11T00:28:52.723Z,24.30
2023-02-11T00:33:54.541Z,28.92
2023-02-11T00:38:57.299Z,26.52
2023-02-11T00:43:59.714Z,26.60
2023-02-11T00:49:04.153Z,20.77
2023-02-11T00:54:06.085Z,26.55
2023-02-11T00:59:07.713Z,28.13
2023-02-11T01:04:09.356Z,27.42
2023-02-11T01:09:10.936Z,25.25
2023-02-11T01:14:12.546Z,27.75
2023-02-11T01:19:14.247Z,26.77
2023-02-11T01:24:15.860Z,23.00
2023-02-11T01:29:19.371Z,27.23
2023-02-11T01:34:21.008Z,25.48
2023-02-11T01:39:22.617Z,25.23
2023-02-11T01:44:25.848Z,28.80
2023-02-11T01:49:30.935Z,26.33
2023-02-11T01:54:58.234Z,24.90
2023-02-11T02:00:18.039Z,25.17
2023-02-11T02:05:36.983Z,26.20
2023-02-11T02:10:41.470Z,27.42
2023-02-11T02:16:09.243Z,28.40
2023-02-11T02:21:36.522Z,30.77
2023-02-11T02:26:52.078Z,25.75
2023-02-11T02:32:12.458Z,29.30
2023-02-11T02:37:55.147Z,26.67
2023-02-11T02:42:57.897Z,25.33
2023-02-11T02:47:59.546Z,23.48
2023-02-11T02:53:26.787Z,28.50
2023-02-11T02:59:04.312Z,23.73
2023-02-11T03:04:22.997Z,24.60
2023-02-11T03:09:46.174Z,26.55
2023-02-11T03:14:50.199Z,26.90
2023-02-11T03:19:51.864Z,25.65
2023-02-11T03:24:54.050Z,23.25
2023-02-11T03:30:06.680Z,27.15
2023-02-11T03:35:15.746Z,21.63
2023-02-11T03:40:21.852Z,31.92
2023-02-11T03:45:24.626Z,24.52
2023-02-11T03:50:27.265Z,25.40
2023-02-11T03:55:29.874Z,26.67
2023-02-11T04:00:33.507Z,30.17
2023-02-11T04:05:35.143Z,27.48
2023-02-11T04:10:36.820Z,30.23
2023-02-11T04:15:38.545Z,32.30
2023-02-11T04:20:40.136Z,25.83
2023-02-11T04:25:42.605Z,29.88
2023-02-11T04:30:44.411Z,32.40
2023-02-11T04:35:46.096Z,28.58
2023-02-11T04:40:47.690Z,29.85
2023-02-11T04:45:49.655Z,26.88
2023-02-11T04:50:53.050Z,29.15
2023-02-11T04:55:54.658Z,26.92
2023-02-11T05:00:56.355Z,27.80
2023-02-11T05:05:58.034Z,33.75
2023-02-11T05:10:59.754Z,37.28
2023-02-11T05:16:01.417Z,29.50
2023-02-11T05:21:09.694Z,29.08
2023-02-11T05:26:11.980Z,30.17
2023-02-11T05:31:14.860Z,28.13
2023-02-11T05:36:16.947Z,31.23
2023-02-11T05:41:19.244Z,34.80
2023-02-11T05:46:20.926Z,31.80
2023-02-11T05:51:22.921Z,33.22
2023-02-11T05:56:24.512Z,37.42
2023-02-11T06:01:26.520Z,37.28
2023-02-11T06:06:28.218Z,35.85
2023-02-11T06:11:29.895Z,33.42
2023-02-11T06:16:31.540Z,32.30
2023-02-11T06:21:43.224Z,38.72
2023-02-11T06:26:45.947Z,30.50
2023-02-11T06:31:47.801Z,32.67
2023-02-11T06:36:49.456Z,32.40
2023-02-11T06:41:51.104Z,30.02
2023-02-11T06:46:52.845Z,30.48
2023-02-11T06:51:54.517Z,29.52
2023-02-11T06:56:56.092Z,32.00
2023-02-11T07:01:57.840Z,33.92
2023-02-11T07:06:59.530Z,33.67
2023-02-11T07:12:01.158Z,32.90
2023-02-11T07:17:04.857Z,35.15
2023-02-11T07:22:06.552Z,34.47
2023-02-11T07:27:08.186Z,32.60
2023-02-11T07:32:10.221Z,32.13
2023-02-11T07:37:11.887Z,33.28
2023-02-11T07:42:13.629Z,34.47
2023-02-11T07:47:15.720Z,35.33
2023-02-11T07:52:17.722Z,37.95
2023-02-11T07:57:19.441Z,37.30
2023-02-11T08:02:21.103Z,36.05
2023-02-11T08:07:22.813Z,34.40
2023-02-11T08:12:24.426Z,37.38
2023-02-11T08:17:26.090Z,32.80
2023-02-11T08:22:27.743Z,33.53
2023-02-11T08:27:29.442Z,30.98
2023-02-11T08:32:31.128Z,30.23
2023-02-11T08:37:33.191Z,29.02
2023-02-11T08:42:34.872Z,30.20
2023-02-11T08:47:37.101Z,31.30
2023-02-11T08:52:38.757Z,32.17
2023-02-11T08:57:40.359Z,34.28
2023-02-11T09:02:42.057Z,31.98
2023-02-11T09:07:43.816Z,29.52
2023-02-11T09:12:45.455Z,33.55
2023-02-11T09:17:47.058Z,28.38
2023-02-11T09:22:48.718Z,29.77
2023-02-11T09:27:51.392Z,30.67
2023-02-11T09:32:52.993Z,29.65
2023-02-11T09:37:54.727Z,30.23
2023-02-11T09:43:14.697Z,30.60
2023-02-11T09:48:19.274Z,30.73
2023-02-11T09:53:26.210Z,33.72
2023-02-11T09:58:36.107Z,30.08
2023-02-11T10:03:49.809Z,32.60
2023-02-11T10:09:09.580Z,33.72
2023-02-11T10:14:38.091Z,32.55
2023-02-11T10:20:03.424Z,31.40
2023-02-11T10:25:28.157Z,29.77
2023-02-11T10:30:37.390Z,35.60
2023-02-11T10:35:39.116Z,30.25
2023-02-11T10:40:40.938Z,29.83
2023-02-11T10:45:45.424Z,31.92
2023-02-11T10:50:47.054Z,31.77
2023-02-11T10:55:54.407Z,33.97
2023-02-11T11:00:57.336Z,30.25
2023-02-11T11:06:01.260Z,32.38
2023-02-11T11:11:09.015Z,31.35
2023-02-11T11:16:13.774Z,31.48
2023-02-11T11:21:21.763Z,27.90
2023-02-11T11:26:25.995Z,28.27
2023-02-11T11:31:37.902Z,30.08
2023-02-11T11:36:40.295Z,30.70
2023-02-11T11:41:51.374Z,30.45
2023-02-11T11:47:41.390Z,27.45
2023-02-11T11:52:51.025Z,28.75
2023-02-11T11:57:52.869Z,30.75
2023-02-11T12:03:23.945Z,27.77
2023-02-11T12:08:44.047Z,25.83
2023-02-11T12:14:07.361Z,25.77
2023-02-11T12:19:43.177Z,28.30
2023-02-11T12:25:00.173Z,27.50
2023-02-11T12:30:10.778Z,28.00
2023-02-11T12:35:32.779Z,27.08
2023-02-11T12:40:46.569Z,32.17
2023-02-11T12:46:10.120Z,29.70
2023-02-11T12:51:20.943Z,29.38
2023-02-11T12:56:32.212Z,28.98
2023-02-11T13:01:39.989Z,27.98
2023-02-11T13:07:02.300Z,26.95
2023-02-11T13:12:24.692Z,28.52
2023-02-11T13:17:32.399Z,34.15
2023-02-11T13:22:44.694Z,27.10
2023-02-11T13:28:08.106Z,28.55
2023-02-11T13:33:15.610Z,30.20
2023-02-11T13:38:18.124Z,30.88
2023-02-11T13:43:24.924Z,28.08
2023-02-11T13:53:29.567Z,22.98
2023-02-11T13:58:31.131Z,26.05
2023-02-11T14:03:56.578Z,23.73
2023-02-11T14:09:18.435Z,24.45
2023-02-11T14:14:33.912Z,28.75
2023-02-11T14:19:38.011Z,27.02
2023-02-11T14:24:51.135Z,25.45
2023-02-11T14:30:15.053Z,28.25
2023-02-11T14:35:37.886Z,29.15
2023-02-11T14:41:22.867Z,26.95
2023-02-11T14:46:25.354Z,26.50
2023-02-11T14:51:38.895Z,29.73
2023-02-11T14:56:42.282Z,28.50
2023-02-11T15:01:47.196Z,28.20
2023-02-11T15:06:51.641Z,29.38
2023-02-11T15:11:54.473Z,28.25
2023-02-11T15:16:58.988Z,25.75
2023-02-11T15:22:00.637Z,26.90
2023-02-11T15:27:04.526Z,26.23
2023-02-11T15:32:21.685Z,25.05
2023-02-11T15:37:26.479Z,26.10
2023-02-11T15:42:40.786Z,25.55
2023-02-11T15:47:51.542Z,25.50
2023-02-11T15:52:53.783Z,26.95
2023-02-11T15:58:00.983Z,25.08
2023-02-11T16:03:03.219Z,25.85
2023-02-11T16:08:21.793Z,27.00
2023-02-11T16:13:23.911Z,27.77
2023-02-11T16:18:39.273Z,23.52
2023-02-11T16:23:42.420Z,27.35
2023-02-11T16:28:44.077Z,28.25
2023-02-11T16:33:45.691Z,24.13
2023-02-11T16:38:47.322Z,24.90
2023-02-11T16:43:48.937Z,28.20
2023-02-11T16:48:50.942Z,30.60
2023-02-11T16:53:52.615Z,29.83
2023-02-11T16:58:54.228Z,35.65
2023-02-11T17:03:55.906Z,36.95
2023-02-11T17:08:57.735Z,32.80
2023-02-11T17:13:59.337Z,37.58
2023-02-11T17:19:01.024Z,37.28
2023-02-11T17:24:02.691Z,36.05
2023-02-11T17:29:08.958Z,34.80
2023-02-11T17:34:10.884Z,32.08
2023-02-11T17:39:12.966Z,34.45
2023-02-11T17:44:16.307Z,33.42
2023-02-11T17:49:18.043Z,30.92
2023-02-11T17:54:20.202Z,30.70
2023-02-11T17:59:21.886Z,27.02
2023-02-11T18:04:23.549Z,32.08
2023-02-11T18:09:26.110Z,29.52
2023-02-11T18:14:27.724Z,25.25
2023-02-11T18:19:32.023Z,29.95
2023-02-11T18:24:33.729Z,28.85
2023-02-11T18:29:35.662Z,30.25
2023-02-11T18:34:37.351Z,29.40
2023-02-11T18:39:39.280Z,35.35
2023-02-11T18:44:40.910Z,44.13
2023-02-11T18:49:42.535Z,35.65
2023-02-11T18:54:44.175Z,35.85
2023-02-11T18:59:45.800Z,37.45
2023-02-11T19:04:47.566Z,40.30
2023-02-11T19:09:49.465Z,40.00
2023-02-11T19:14:51.185Z,39.97
2023-02-11T19:19:53.135Z,40.15
2023-02-11T19:24:54.807Z,39.60
2023-02-11T19:29:56.588Z,34.22
2023-02-11T19:34:58.211Z,29.15
2023-02-11T19:39:59.833Z,32.47
2023-02-11T19:45:01.458Z,33.90
2023-02-11T19:50:04.813Z,31.30
2023-02-11T19:55:07.455Z,28.55
2023-02-11T20:00:11.121Z,27.17
2023-02-11T20:05:15.894Z,27.20
2023-02-11T20:10:18.116Z,33.05
2023-02-11T20:15:19.792Z,32.33
2023-02-11T20:20:21.422Z,39.88
2023-02-11T20:25:23.098Z,26.00
2023-02-11T20:30:24.731Z,31.77
2023-02-11T20:35:26.368Z,25.23
2023-02-11T20:40:28.015Z,30.02
2023-02-11T20:45:29.642Z,27.85
2023-02-11T20:50:31.291Z,30.25
2023-02-11T20:55:37.126Z,31.38
2023-02-11T21:00:38.746Z,34.10
2023-02-11T21:05:40.390Z,29.75
2023-02-11T21:10:42.910Z,33.15
2023-02-11T21:15:44.567Z,30.70
2023-02-11T21:20:46.263Z,33.58
2023-02-11T21:25:47.913Z,32.35
2023-02-11T21:30:50.699Z,27.38
2023-02-11T21:35:59.075Z,27.02
2023-02-11T21:41:04.835Z,33.80
2023-02-11T21:46:09.079Z,31.02
2023-02-11T21:51:24.597Z,30.75
2023-02-11T21:56:29.582Z,28.50
2023-02-11T22:01:33.280Z,28.98
2023-02-11T22:06:35.014Z,33.70
2023-02-11T22:11:37.004Z,34.22
2023-02-11T22:16:38.698Z,33.10
2023-02-11T22:21:40.785Z,31.88
2023-02-11T22:26:42.411Z,35.58
2023-02-11T22:31:44.319Z,34.88
2023-02-11T22:36:46.985Z,32.40
2023-02-11T22:41:49.017Z,32.22
2023-02-11T22:46:51.821Z,31.60
2023-02-11T22:51:53.532Z,39.63
2023-02-11T22:56:55.166Z,37.90
2023-02-11T23:01:56.928Z,30.00
2023-02-11T23:06:58.620Z,37.17
2023-02-11T23:12:00.428Z,33.22
2023-02-11T23:17:02.032Z,35.58
2023-02-11T23:22:03.777Z,29.15
2023-02-11T23:27:05.539Z,36.47
2023-02-11T23:32:07.164Z,36.20
2023-02-11T23:37:08.835Z,35.80
2023-02-11T23:42:12.006Z,35.13
2023-02-11T23:47:13.644Z,42.70
2023-02-11T23:52:15.248Z,39.67
2023-02-11T23:57:16.928Z,43.15
